createdAt,value
2017-08-18T00:00:01.452Z,99.90
2017-08-18T00:02:28.950Z,99.90
2017-08-18T00:04:56.521Z,99.90
2017-08-18T00:07:24.027Z,99.90
2017-08-18T00:09:51.526Z,99.90
2017-08-18T00:12:19.377Z,99.90
2017-08-18T00:14:46.878Z,99.90
2017-08-18T00:17:14.381Z,99.90
2017-08-18T00:19:42.227Z,99.90
2017-08-18T00:22:09.731Z,99.90
2017-08-18T00:24:37.239Z,99.90
2017-08-18T00:27:05.760Z,99.90
2017-08-18T00:29:33.280Z,99.90
2017-08-18T00:32:01.355Z,99.90
2017-08-18T00:34:28.951Z,99.90
2017-08-18T00:36:56.469Z,99.90
2017-08-18T00:39:24.017Z,99.90
2017-08-18T00:41:51.919Z,99.90
2017-08-18T00:44:19.411Z,99.90
2017-08-18T00:46:46.915Z,99.90
2017-08-18T00:49:14.790Z,99.90
2017-08-18T00:51:42.341Z,99.90
2017-08-18T00:54:09.850Z,99.90
2017-08-18T00:56:37.438Z,99.90
2017-08-18T00:59:04.947Z,99.90
2017-08-18T01:01:32.450Z,99.90
2017-08-18T01:04:00.023Z,99.90
2017-08-18T01:06:27.551Z,99.90
2017-08-18T01:08:55.066Z,99.90
2017-08-18T01:11:23.034Z,99.90
2017-08-18T01:13:50.539Z,99.90
2017-08-18T01:16:18.042Z,99.90
2017-08-18T01:18:45.652Z,99.90
2017-08-18T01:21:13.194Z,99.90
2017-08-18T01:23:40.735Z,99.90
2017-08-18T01:26:08.660Z,99.90
2017-08-18T01:28:36.167Z,99.90
2017-08-18T01:31:03.710Z,99.90
2017-08-18T01:33:31.280Z,99.90
2017-08-18T01:35:58.807Z,99.90
2017-08-18T01:38:26.315Z,99.90
2017-08-18T01:40:54.134Z,99.90
2017-08-18T01:43:21.643Z,99.90
2017-08-18T01:45:49.151Z,99.90
2017-08-18T01:48:16.946Z,99.90
2017-08-18T01:50:44.446Z,99.90
2017-08-18T01:53:12.390Z,99.90
2017-08-18T01:55:40.038Z,99.90
2017-08-18T01:58:07.547Z,99.90
2017-08-18T02:00:35.050Z,99.90
2017-08-18T02:03:02.802Z,99.90
2017-08-18T02:05:30.309Z,99.90
2017-08-18T02:07:57.888Z,99.90
2017-08-18T02:10:25.483Z,99.90
2017-08-18T02:12:53.122Z,99.90
2017-08-18T02:15:20.650Z,99.90
2017-08-18T02:17:48.616Z,99.90
2017-08-18T02:20:16.172Z,99.90
2017-08-18T02:22:43.703Z,99.90
2017-08-18T02:25:11.539Z,99.90
2017-08-18T02:27:39.183Z,99.90
2017-08-18T02:30:06.700Z,99.90
2017-08-18T02:32:34.419Z,99.90
2017-08-18T02:35:01.959Z,99.90
2017-08-18T02:37:29.547Z,99.90
2017-08-18T02:39:57.248Z,99.90
2017-08-18T02:42:24.759Z,99.90
2017-08-18T02:44:52.280Z,99.90
2017-08-18T02:47:20.257Z,99.90
2017-08-18T02:49:47.772Z,99.90
2017-08-18T02:52:15.275Z,99.90
2017-08-18T02:54:42.875Z,99.90
2017-08-18T02:57:10.400Z,99.90
2017-08-18T02:59:38.008Z,99.90
2017-08-18T03:02:05.575Z,99.90
2017-08-18T03:04:33.327Z,99.90
2017-08-18T03:07:00.954Z,99.90
2017-08-18T03:09:28.764Z,99.90
2017-08-18T03:11:56.278Z,99.90
2017-08-18T03:14:23.794Z,99.90
2017-08-18T03:16:51.379Z,99.90
2017-08-18T03:19:18.935Z,99.90
2017-08-18T03:21:46.456Z,99.90
2017-08-18T03:24:14.018Z,99.90
2017-08-18T03:26:41.525Z,99.90
2017-08-18T03:29:09.074Z,99.90
2017-08-18T03:31:36.630Z,99.90
2017-08-18T03:34:04.147Z,99.90
2017-08-18T03:36:31.651Z,99.90
2017-08-18T03:38:59.215Z,99.90
2017-08-18T03:41:26.803Z,99.90
2017-08-18T03:43:54.311Z,99.90
2017-08-18T03:46:22.219Z,99.90
2017-08-18T03:48:50.027Z,99.90
2017-08-18T03:51:17.541Z,99.90
2017-08-18T03:53:45.428Z,99.90
2017-08-18T03:56:13.210Z,99.90
2017-08-18T03:58:40.715Z,99.90
2017-08-18T04:01:08.532Z,99.90
2017-08-18T04:03:36.044Z,99.90
2017-08-18T04:06:03.598Z,99.90
2017-08-18T04:08:31.211Z,99.90
2017-08-18T04:10:58.799Z,99.90
2017-08-18T04:13:26.324Z,99.90
2017-08-18T04:15:54.148Z,99.90
2017-08-18T04:18:21.972Z,99.90
2017-08-18T04:20:49.531Z,99.90
2017-08-18T04:23:17.512Z,99.90
2017-08-18T04:25:45.289Z,99.90
2017-08-18T04:28:12.824Z,99.90
2017-08-18T04:30:40.735Z,99.90
2017-08-18T04:33:08.399Z,99.90
2017-08-18T04:35:35.924Z,99.90
2017-08-18T04:38:03.796Z,99.90
2017-08-18T04:40:31.796Z,99.90
2017-08-18T04:42:59.375Z,99.90
2017-08-18T04:45:26.956Z,99.90
2017-08-18T04:47:54.735Z,99.90
2017-08-18T04:50:22.367Z,99.90
2017-08-18T04:52:50.179Z,99.90
2017-08-18T04:55:17.684Z,99.90
2017-08-18T04:57:45.215Z,99.90
2017-08-18T05:00:12.799Z,99.90
2017-08-18T05:02:40.299Z,99.90
2017-08-18T05:05:07.937Z,99.90
2017-08-18T05:07:35.560Z,99.90
2017-08-18T05:10:03.103Z,99.90
2017-08-18T05:12:30.751Z,99.90
2017-08-18T05:14:58.399Z,99.90
2017-08-18T05:17:25.937Z,99.90
2017-08-18T05:19:54.595Z,99.90
2017-08-18T05:22:22.128Z,99.90
2017-08-18T05:24:50.028Z,99.90
2017-08-18T05:27:17.763Z,99.90
2017-08-18T05:29:45.779Z,99.90
2017-08-18T05:32:13.514Z,99.90
2017-08-18T05:34:41.085Z,99.90
2017-08-18T05:37:08.767Z,99.90
2017-08-18T05:39:36.276Z,99.90
2017-08-18T05:42:03.883Z,99.90
2017-08-18T05:44:31.695Z,99.90
2017-08-18T05:46:59.200Z,99.90
2017-08-18T05:49:26.897Z,99.90
2017-08-18T05:51:54.539Z,99.90
2017-08-18T05:54:22.051Z,99.90
2017-08-18T05:56:49.690Z,99.90
2017-08-18T05:59:17.256Z,99.90
2017-08-18T06:01:44.759Z,99.90
2017-08-18T06:04:12.456Z,99.90
2017-08-18T06:06:40.407Z,99.90
2017-08-18T06:09:07.934Z,99.90
2017-08-18T06:11:35.585Z,99.90
2017-08-18T06:14:03.171Z,99.90
2017-08-18T06:16:31.180Z,99.90
2017-08-18T06:18:59.271Z,99.90
2017-08-18T06:21:26.840Z,99.80
2017-08-18T06:23:54.413Z,99.10
2017-08-18T06:26:22.069Z,99.70
2017-08-18T06:28:49.575Z,99.90
2017-08-18T06:31:17.415Z,99.90
2017-08-18T06:33:45.258Z,99.90
2017-08-18T06:36:12.863Z,99.90
2017-08-18T06:38:40.672Z,99.90
2017-08-18T06:41:08.699Z,99.90
2017-08-18T06:43:36.274Z,99.90
2017-08-18T06:46:03.895Z,99.90
2017-08-18T06:48:31.439Z,99.30
2017-08-18T06:50:59.047Z,96.70
2017-08-18T06:53:26.628Z,96.00
2017-08-18T06:55:54.167Z,94.10
2017-08-18T06:58:21.682Z,92.00
2017-08-18T07:00:49.744Z,88.90
2017-08-18T07:03:17.401Z,89.40
2017-08-18T07:05:44.952Z,89.60
2017-08-18T07:08:12.610Z,90.70
2017-08-18T07:10:40.384Z,90.90
2017-08-18T07:13:07.905Z,91.80
2017-08-18T07:15:35.416Z,92.10
2017-08-18T07:18:03.179Z,92.60
2017-08-18T07:20:31.035Z,93.50
2017-08-18T07:22:58.531Z,93.90
2017-08-18T07:25:26.080Z,94.20
2017-08-18T07:27:53.588Z,94.80
2017-08-18T07:30:21.099Z,95.10
2017-08-18T07:32:48.906Z,93.80
2017-08-18T07:35:16.583Z,93.60
2017-08-18T07:37:44.185Z,94.30
2017-08-18T07:40:12.267Z,94.20
2017-08-18T07:42:39.792Z,93.70
2017-08-18T07:45:07.318Z,93.70
2017-08-18T07:47:34.888Z,93.50
2017-08-18T07:50:02.398Z,93.00
2017-08-18T07:52:29.927Z,92.90
2017-08-18T07:54:57.559Z,93.10
2017-08-18T07:57:25.362Z,92.90
2017-08-18T07:59:52.976Z,92.50
2017-08-18T08:02:20.568Z,92.30
2017-08-18T08:04:48.132Z,91.70
2017-08-18T08:07:16.151Z,92.00
2017-08-18T08:09:43.688Z,92.80
2017-08-18T08:12:11.341Z,92.30
2017-08-18T08:14:39.147Z,92.20
2017-08-18T08:17:06.706Z,91.40
2017-08-18T08:19:34.350Z,90.50
2017-08-18T08:22:02.012Z,89.20
2017-08-18T08:24:29.547Z,86.00
2017-08-18T08:26:57.071Z,79.80
2017-08-18T08:29:24.669Z,76.80
2017-08-18T08:31:52.186Z,75.10
2017-08-18T08:34:19.695Z,74.60
2017-08-18T08:36:47.224Z,77.00
2017-08-18T08:39:14.732Z,75.90
2017-08-18T08:41:42.239Z,75.60
2017-08-18T08:44:09.835Z,76.50
2017-08-18T08:46:37.354Z,74.20
2017-08-18T08:49:04.853Z,74.40
2017-08-18T08:51:32.658Z,74.30
2017-08-18T08:54:00.176Z,74.50
2017-08-18T08:56:27.688Z,71.50
2017-08-18T08:58:55.238Z,69.20
2017-08-18T09:01:23.226Z,67.80
2017-08-18T09:03:51.213Z,65.20
2017-08-18T09:06:19.159Z,65.10
2017-08-18T09:08:47.015Z,62.40
2017-08-18T09:11:14.547Z,64.00
2017-08-18T09:13:42.171Z,59.50
2017-08-18T09:16:09.676Z,57.20
2017-08-18T09:18:37.178Z,58.80
2017-08-18T09:21:04.708Z,57.00
2017-08-18T09:23:32.099Z,56.10
2017-08-18T09:25:59.599Z,53.20
2017-08-18T09:28:26.979Z,52.90
2017-08-18T09:30:54.923Z,55.60
2017-08-18T09:33:22.436Z,55.60
2017-08-18T09:35:50.348Z,53.90
2017-08-18T09:38:17.847Z,53.50
2017-08-18T09:40:45.351Z,54.50
2017-08-18T09:43:12.950Z,55.10
2017-08-18T09:45:40.483Z,55.00
2017-08-18T09:48:19.878Z,54.20
2017-08-18T09:51:12.872Z,52.60
2017-08-18T09:54:04.243Z,51.40
2017-08-18T09:56:43.495Z,46.90
2017-08-18T09:59:13.413Z,45.20
2017-08-18T10:01:40.923Z,44.90
2017-08-18T10:04:08.827Z,44.10
2017-08-18T10:06:36.772Z,46.30
2017-08-18T10:09:04.402Z,48.00
2017-08-18T10:11:31.919Z,45.30
2017-08-18T10:13:59.461Z,46.20
2017-08-18T10:16:26.967Z,44.00
2017-08-18T10:18:54.775Z,43.70
2017-08-18T10:21:22.278Z,41.90
2017-08-18T10:23:49.804Z,40.10
2017-08-18T10:26:17.368Z,41.90
2017-08-18T10:28:44.874Z,41.70
2017-08-18T10:31:12.399Z,39.80
2017-08-18T10:33:40.295Z,39.70
2017-08-18T10:36:07.807Z,41.80
2017-08-18T10:38:35.317Z,42.40
2017-08-18T10:41:03.144Z,41.30
2017-08-18T10:43:31.271Z,42.40
2017-08-18T10:45:58.832Z,42.60
2017-08-18T10:48:26.391Z,40.50
2017-08-18T10:50:53.917Z,43.10
2017-08-18T10:53:21.434Z,43.00
2017-08-18T10:55:48.963Z,41.60
2017-08-18T10:58:16.473Z,39.80
2017-08-18T11:00:44.267Z,41.50
2017-08-18T11:03:11.779Z,40.80
2017-08-18T11:05:39.070Z,41.20
2017-08-18T11:08:06.619Z,40.00
2017-08-18T11:10:34.130Z,39.10
2017-08-18T11:13:01.635Z,39.40
2017-08-18T11:15:29.196Z,40.10
2017-08-18T11:17:56.699Z,40.50
2017-08-18T11:20:24.524Z,40.90
2017-08-18T11:22:52.303Z,41.40
2017-08-18T11:25:19.827Z,40.80
2017-08-18T11:27:47.330Z,40.80
2017-08-18T11:30:14.909Z,41.10
2017-08-18T11:32:42.430Z,40.00
2017-08-18T11:35:09.934Z,39.20
2017-08-18T11:38:06.196Z,37.30
2017-08-18T11:40:33.691Z,34.10
2017-08-18T11:43:01.203Z,34.40
2017-08-18T11:45:29.275Z,35.10
2017-08-18T11:47:56.792Z,36.00
2017-08-18T11:50:24.309Z,38.20
2017-08-18T11:52:51.871Z,40.10
2017-08-18T11:55:19.393Z,41.70
2017-08-18T11:57:46.899Z,41.40
2017-08-18T12:00:14.468Z,41.50
2017-08-18T12:02:41.975Z,42.90
2017-08-18T12:05:09.477Z,43.20
2017-08-18T12:07:37.093Z,44.00
2017-08-18T12:10:05.124Z,42.30
2017-08-18T12:12:32.679Z,40.40
2017-08-18T12:15:00.198Z,41.60
2017-08-18T12:17:28.456Z,42.60
2017-08-18T12:19:56.108Z,43.10
2017-08-18T12:22:23.711Z,43.50
2017-08-18T12:24:51.259Z,44.60
2017-08-18T12:27:18.789Z,46.70
2017-08-18T12:29:46.298Z,46.60
2017-08-18T12:32:14.351Z,45.70
2017-08-18T12:34:41.856Z,44.60
2017-08-18T12:37:10.042Z,44.10
2017-08-18T12:39:38.075Z,41.00
2017-08-18T12:42:05.586Z,41.30
2017-08-18T12:44:33.209Z,41.00
2017-08-18T12:47:00.755Z,39.90
2017-08-18T12:49:28.259Z,40.30
2017-08-18T12:51:55.661Z,41.10
2017-08-18T12:54:23.388Z,42.10
2017-08-18T12:56:51.025Z,42.30
2017-08-18T12:59:18.531Z,40.90
2017-08-18T13:01:46.343Z,41.90
2017-08-18T13:04:13.852Z,41.80
2017-08-18T13:06:41.346Z,42.50
2017-08-18T13:09:09.040Z,40.80
2017-08-18T13:11:36.539Z,39.30
2017-08-18T13:14:04.047Z,40.30
2017-08-18T13:16:31.583Z,41.00
2017-08-18T13:18:59.086Z,41.60
2017-08-18T13:21:26.880Z,41.10
2017-08-18T13:23:54.392Z,39.90
2017-08-18T13:26:21.896Z,39.70
2017-08-18T13:28:49.619Z,41.40
2017-08-18T13:31:17.147Z,42.60
2017-08-18T13:33:44.735Z,43.40
2017-08-18T13:36:12.630Z,44.50
2017-08-18T13:38:40.171Z,44.00
2017-08-18T13:41:08.056Z,43.10
2017-08-18T13:43:35.601Z,43.90
2017-08-18T13:46:03.119Z,44.40
2017-08-18T13:48:30.681Z,44.80
2017-08-18T13:50:58.178Z,45.80
2017-08-18T13:53:25.703Z,46.20
2017-08-18T13:55:53.268Z,44.40
2017-08-18T13:58:20.792Z,47.10
2017-08-18T14:00:48.332Z,48.20
2017-08-18T14:03:15.979Z,49.10
2017-08-18T14:05:43.474Z,48.80
2017-08-18T14:08:10.983Z,46.70
2017-08-18T14:10:38.553Z,44.40
2017-08-18T14:13:06.050Z,42.20
2017-08-18T14:15:33.564Z,41.10
2017-08-18T14:18:01.166Z,40.70
2017-08-18T14:20:28.764Z,40.70
2017-08-18T14:22:57.727Z,37.70
2017-08-18T14:25:31.099Z,40.50
2017-08-18T14:27:58.755Z,41.00
2017-08-18T14:30:26.264Z,43.20
2017-08-18T14:32:53.821Z,41.80
2017-08-18T14:35:21.323Z,42.90
2017-08-18T14:37:48.824Z,44.00
2017-08-18T14:40:16.433Z,45.90
2017-08-18T14:42:43.972Z,46.50
2017-08-18T14:45:11.499Z,46.40
2017-08-18T14:47:39.373Z,45.90
2017-08-18T14:50:06.895Z,47.00
2017-08-18T14:52:34.409Z,46.90
2017-08-18T14:55:02.077Z,47.60
2017-08-18T14:57:29.353Z,48.00
2017-08-18T14:59:57.020Z,48.60
2017-08-18T15:02:24.577Z,48.50
2017-08-18T15:04:53.535Z,48.40
2017-08-18T15:07:21.056Z,47.80
2017-08-18T15:09:48.626Z,48.10
2017-08-18T15:12:15.907Z,48.70
2017-08-18T15:14:43.428Z,48.70
2017-08-18T15:17:11.401Z,49.10
2017-08-18T15:19:38.895Z,52.60
2017-08-18T15:22:06.395Z,57.30
2017-08-18T15:24:34.331Z,61.10
2017-08-18T15:27:01.827Z,63.10
2017-08-18T15:29:29.331Z,66.00
2017-08-18T15:31:57.532Z,69.30
2017-08-18T15:34:25.040Z,73.20
2017-08-18T15:36:52.543Z,77.40
2017-08-18T15:39:20.091Z,86.50
2017-08-18T15:41:47.612Z,92.60
2017-08-18T15:44:15.343Z,97.50
2017-08-18T15:46:42.860Z,99.90
2017-08-18T15:49:10.895Z,99.90
2017-08-18T15:51:38.481Z,99.90
2017-08-18T15:54:06.004Z,99.90
2017-08-18T15:56:33.511Z,99.90
2017-08-18T15:59:01.197Z,99.90
2017-08-18T16:01:28.704Z,99.90
2017-08-18T16:03:56.212Z,99.90
2017-08-18T16:06:23.771Z,99.90
2017-08-18T16:08:51.302Z,99.90
2017-08-18T16:11:18.830Z,99.90
2017-08-18T16:13:46.442Z,99.90
2017-08-18T16:16:13.812Z,99.90
2017-08-18T16:18:41.374Z,99.90
2017-08-18T16:21:08.887Z,99.90
2017-08-18T16:23:37.099Z,99.90
2017-08-18T16:26:04.455Z,99.90
2017-08-18T16:28:32.374Z,99.90
2017-08-18T16:30:59.898Z,99.90
2017-08-18T16:33:27.829Z,99.90
2017-08-18T16:35:55.867Z,99.90
2017-08-18T16:38:23.403Z,99.90
2017-08-18T16:40:51.064Z,99.90
2017-08-18T16:43:18.580Z,99.90
2017-08-18T16:45:46.178Z,99.90
2017-08-18T16:48:13.730Z,99.90
2017-08-18T16:50:41.236Z,99.90
2017-08-18T16:53:08.748Z,99.90
2017-08-18T16:55:36.347Z,99.90
2017-08-18T16:58:03.902Z,99.90
2017-08-18T17:00:31.407Z,99.90
2017-08-18T17:02:59.180Z,99.90
2017-08-18T17:05:26.696Z,99.90
2017-08-18T17:07:54.272Z,99.90
2017-08-18T17:10:21.791Z,99.90
2017-08-18T17:12:49.296Z,99.90
2017-08-18T17:15:17.098Z,99.90
2017-08-18T17:17:44.599Z,99.90
2017-08-18T17:20:12.248Z,99.90
2017-08-18T17:22:39.786Z,99.90
2017-08-18T17:25:07.476Z,99.90
2017-08-18T17:27:35.023Z,99.90
2017-08-18T17:30:02.874Z,99.90
2017-08-18T17:32:30.371Z,99.90
2017-08-18T17:34:57.871Z,99.90
2017-08-18T17:37:25.527Z,99.90
2017-08-18T17:39:53.026Z,99.90
2017-08-18T17:42:20.587Z,99.90
2017-08-18T17:44:48.148Z,99.90
2017-08-18T17:47:15.676Z,99.90
2017-08-18T17:49:43.211Z,99.90
2017-08-18T17:52:11.028Z,99.90
2017-08-18T17:54:38.555Z,99.90
2017-08-18T17:57:06.060Z,99.90
2017-08-18T17:59:34.619Z,99.90
2017-08-18T18:02:02.155Z,99.90
2017-08-18T18:04:29.755Z,99.90
2017-08-18T18:06:57.322Z,99.90
2017-08-18T18:09:24.876Z,99.90
2017-08-18T18:11:52.379Z,99.90
2017-08-18T18:14:19.963Z,99.90
2017-08-18T18:16:47.478Z,99.90
2017-08-18T18:19:14.979Z,99.90
2017-08-18T18:21:42.536Z,99.90
2017-08-18T18:24:10.044Z,99.90
2017-08-18T18:26:37.548Z,99.90
2017-08-18T18:29:06.420Z,99.90
2017-08-18T18:31:33.926Z,99.90
2017-08-18T18:34:01.444Z,99.90
2017-08-18T18:36:29.413Z,99.90
2017-08-18T18:38:57.090Z,99.90
2017-08-18T18:41:25.188Z,99.90
2017-08-18T18:43:53.215Z,99.90
2017-08-18T18:46:20.860Z,99.90
2017-08-18T18:48:48.824Z,99.90
2017-08-18T18:51:16.679Z,99.90
2017-08-18T18:53:44.217Z,99.90
2017-08-18T18:56:11.727Z,99.90
2017-08-18T18:58:39.595Z,99.90
2017-08-18T19:01:07.852Z,99.90
2017-08-18T19:03:35.380Z,99.90
2017-08-18T19:06:02.861Z,99.90
2017-08-18T19:08:30.370Z,99.90
2017-08-18T19:10:58.038Z,99.90
2017-08-18T19:13:25.911Z,99.90
2017-08-18T19:15:53.419Z,99.90
2017-08-18T19:18:21.002Z,99.90
2017-08-18T19:20:48.810Z,99.90
2017-08-18T19:23:16.321Z,99.90
2017-08-18T19:25:43.823Z,99.90
2017-08-18T19:28:11.371Z,99.90
2017-08-18T19:30:38.927Z,99.90
2017-08-18T19:33:06.515Z,99.90
2017-08-18T19:35:34.066Z,99.90
2017-08-18T19:38:01.571Z,99.90
2017-08-18T19:40:29.184Z,99.90
2017-08-18T19:42:56.970Z,99.90
2017-08-18T19:45:25.265Z,99.90
2017-08-18T19:47:52.842Z,99.90
2017-08-18T19:50:20.729Z,99.90
2017-08-18T19:52:48.731Z,99.90
2017-08-18T19:55:16.933Z,99.90
2017-08-18T19:57:44.456Z,99.90
2017-08-18T20:00:12.655Z,99.90
2017-08-18T20:02:40.577Z,99.90
2017-08-18T20:05:08.075Z,99.90
2017-08-18T20:07:35.586Z,99.90
2017-08-18T20:10:03.395Z,99.90
2017-08-18T20:12:30.951Z,99.90
2017-08-18T20:14:58.839Z,99.90
2017-08-18T20:17:27.191Z,99.90
2017-08-18T20:19:55.471Z,99.90
2017-08-18T20:22:22.999Z,99.90
2017-08-18T20:24:51.431Z,99.90
2017-08-18T20:27:19.455Z,99.90
2017-08-18T20:29:46.967Z,99.90
2017-08-18T20:32:14.707Z,99.90
2017-08-18T20:34:42.606Z,99.90
2017-08-18T20:37:10.343Z,99.90
2017-08-18T20:39:37.956Z,99.90
2017-08-18T20:42:05.464Z,99.90
2017-08-18T20:44:33.548Z,99.90
2017-08-18T20:47:01.115Z,99.90
2017-08-18T20:49:28.647Z,99.90
2017-08-18T20:51:56.452Z,99.90
2017-08-18T20:54:24.028Z,99.90
2017-08-18T20:56:51.539Z,99.90
2017-08-18T20:59:19.353Z,99.90
2017-08-18T21:01:46.868Z,99.90
2017-08-18T21:04:14.423Z,99.90
2017-08-18T21:06:42.075Z,99.90
2017-08-18T21:09:09.595Z,99.90
2017-08-18T21:11:37.107Z,99.90
2017-08-18T21:14:04.665Z,99.90
2017-08-18T21:16:32.178Z,99.90
2017-08-18T21:18:59.756Z,99.90
2017-08-18T21:21:27.308Z,99.90
2017-08-18T21:23:54.839Z,99.90
2017-08-18T21:26:22.350Z,99.90
2017-08-18T21:28:49.943Z,99.90
2017-08-18T21:31:17.503Z,99.90
2017-08-18T21:33:45.017Z,99.90
2017-08-18T21:36:12.812Z,99.90
2017-08-18T21:38:40.332Z,99.90
2017-08-18T21:41:07.868Z,99.90
2017-08-18T21:43:35.445Z,99.90
2017-08-18T21:46:02.962Z,99.90
2017-08-18T21:48:30.523Z,99.90
2017-08-18T21:50:58.106Z,99.90
2017-08-18T21:53:25.625Z,99.90
2017-08-18T21:55:53.255Z,99.90
2017-08-18T21:58:20.807Z,99.90
2017-08-18T22:00:48.579Z,99.90
2017-08-18T22:03:16.123Z,99.90
2017-08-18T22:05:43.907Z,99.90
2017-08-18T22:08:11.455Z,99.90
2017-08-18T22:10:38.977Z,99.90
2017-08-18T22:13:06.548Z,99.90
2017-08-18T22:15:34.040Z,99.90
2017-08-18T22:18:01.548Z,99.90
2017-08-18T22:20:29.116Z,99.90
2017-08-18T22:22:56.627Z,99.90
2017-08-18T22:25:24.154Z,99.90
2017-08-18T22:27:51.845Z,99.90
2017-08-18T22:30:19.422Z,99.90
2017-08-18T22:32:46.927Z,99.90
2017-08-18T22:35:14.710Z,99.90
2017-08-18T22:37:42.835Z,99.90
2017-08-18T22:40:10.448Z,99.90
2017-08-18T22:42:38.330Z,99.90
2017-08-18T22:45:05.998Z,99.90
2017-08-18T22:47:33.574Z,99.90
2017-08-18T22:50:01.134Z,99.90
2017-08-18T22:52:28.649Z,99.90
2017-08-18T22:54:56.191Z,99.90
2017-08-18T22:57:24.032Z,99.90
2017-08-18T22:59:51.560Z,99.90
2017-08-18T23:02:19.063Z,99.90
2017-08-18T23:04:46.630Z,99.90
2017-08-18T23:07:14.145Z,99.90
2017-08-18T23:09:41.655Z,99.90
2017-08-18T23:12:09.370Z,99.90
2017-08-18T23:14:36.875Z,99.90
2017-08-18T23:17:04.379Z,99.90
2017-08-18T23:19:32.323Z,99.90
2017-08-18T23:21:59.828Z,99.90
2017-08-18T23:24:27.330Z,99.90
2017-08-18T23:26:54.909Z,99.90
2017-08-18T23:29:22.415Z,99.90
2017-08-18T23:31:49.935Z,99.90
2017-08-18T23:34:17.491Z,99.90
2017-08-18T23:36:45.054Z,99.90
2017-08-18T23:39:12.563Z,99.90
2017-08-18T23:41:40.112Z,99.90
2017-08-18T23:44:07.615Z,99.90
2017-08-18T23:46:35.139Z,99.90
2017-08-18T23:49:02.839Z,99.90
2017-08-18T23:51:30.338Z,99.90
2017-08-18T23:53:57.855Z,99.90
2017-08-18T23:56:25.422Z,99.90
2017-08-18T23:58:52.936Z,99.90
